Time;durP1;ratioP1;P1;durP2;ratioP2;P2;SDS_P1;SDS_P2;PMS_P1;PMS_P2;Temp;Humidity;BMP_temperature;BMP_pressure;BME280_temperature;BME280_humidity;BME280_pressure;Samples;Min_cycle;Max_cycle;Signal;HPM_P1;HPM_P2
2023/06/14 02:29:18;;;;;;;5.40;5.00;;;;;;;15.52;100.00;100192.48;103488;1302;550705;-67
2023/06/14 02:31:46;;;;;;;5.30;4.90;;;;;;;16.15;100.00;100190.89;105646;1289;22539;-68
2023/06/14 02:34:19;;;;;;;8.10;5.10;;;;;;;16.58;100.00;100191.45;105326;1275;138568;-67
2023/06/14 02:36:47;;;;;;;5.50;4.50;;;;;;;17.07;100.00;100202.07;105509;1285;139909;-67
2023/06/14 02:39:16;;;;;;;6.60;4.20;;;;;;;17.48;100.00;100203.13;105714;1285;22563;-65
2023/06/14 02:41:43;;;;;;;4.50;4.00;;;;;;;17.76;100.00;100195.72;105504;1279;413229;-67
2023/06/14 14:45:44;;;;;;;4.50;0.80;;;;;;;24.45;64.89;100087.22;103414;1302;545072;-70
2023/06/14 14:48:11;;;;;;;3.10;0.80;;;;;;;24.51;64.84;100086.73;105209;1285;137470;-69
2023/06/14 14:50:39;;;;;;;1.50;0.70;;;;;;;24.58;65.05;100088.11;105251;1283;27571;-70
2023/06/14 14:53:06;;;;;;;3.00;1.10;;;;;;;24.64;65.23;100085.77;105638;1286;138562;-74
2023/06/14 14:55:36;;;;;;;6.10;1.10;;;;;;;24.68;64.86;100084.36;106357;1285;22542;-76
2023/06/14 14:58:03;;;;;;;7.40;0.60;;;;;;;24.66;64.69;100080.34;109291;1283;138405;-72
2023/06/14 15:00:31;;;;;;;2.70;0.60;;;;;;;24.65;64.93;100082.57;109208;1283;193645;-73
2023/06/14 15:02:58;;;;;;;4.90;1.10;;;;;;;24.64;65.19;100087.12;109567;1282;23344;-71
2023/06/14 15:05:27;;;;;;;4.20;0.80;;;;;;;24.66;65.26;100088.07;109287;1281;137480;-71
2023/06/14 15:07:54;;;;;;;3.30;1.50;;;;;;;24.68;65.19;100082.38;109613;1272;22370;-80
2023/06/14 15:10:22;;;;;;;3.10;1.00;;;;;;;24.66;65.52;100082.58;109356;1283;137314;-78
2023/06/14 15:12:49;;;;;;;2.00;1.10;;;;;;;24.60;65.76;100082.52;109432;1282;137971;-73
2023/06/14 15:15:17;;;;;;;3.50;1.00;;;;;;;24.56;66.37;100086.88;109543;1281;22239;-76
2023/06/14 15:17:44;;;;;;;5.40;0.60;;;;;;;24.56;65.89;100085.14;109512;1282;137560;-72
2023/06/14 15:20:13;;;;;;;2.60;0.60;;;;;;;24.51;65.85;100081.61;109413;1280;138561;-69
2023/06/14 15:22:41;;;;;;;2.10;0.60;;;;;;;24.48;65.59;100082.89;109565;1282;22356;-71
2023/06/14 15:25:08;;;;;;;1.80;0.80;;;;;;;24.45;65.70;100083.73;109395;1282;137469;-71
2023/06/14 15:27:36;;;;;;;2.10;0.40;;;;;;;24.42;65.49;100087.58;109618;1281;22335;-73
2023/06/14 15:30:03;;;;;;;1.40;0.80;;;;;;;24.38;65.56;100087.55;109501;1280;137978;-73
2023/06/14 15:32:31;;;;;;;2.20;1.20;;;;;;;24.32;65.19;100087.66;109487;1281;139499;-84
2023/06/14 15:34:58;;;;;;;3.40;1.30;;;;;;;24.30;65.48;100089.54;109580;1273;22236;-69
2023/06/14 15:37:26;;;;;;;2.10;0.70;;;;;;;24.32;65.64;100087.89;109396;1272;137147;-67
2023/06/14 15:39:53;;;;;;;3.10;0.80;;;;;;;24.32;65.39;100090.07;109937;1273;22384;-66
2023/06/14 15:42:20;;;;;;;6.20;3.70;;;;;;;24.31;65.49;100090.88;109857;1266;137588;-73
2023/06/14 15:44:48;;;;;;;4.40;1.00;;;;;;;24.31;65.60;100090.78;109833;1275;137444;-69
2023/06/14 15:47:15;;;;;;;3.50;0.80;;;;;;;24.31;65.84;100091.23;109982;1273;22369;-68
2023/06/14 15:49:42;;;;;;;1.60;1.00;;;;;;;24.32;66.18;100089.97;109777;1275;137581;-66
2023/06/14 15:52:09;;;;;;;3.70;1.30;;;;;;;24.36;66.70;100091.40;109836;1273;139632;-65
2023/06/14 15:54:37;;;;;;;3.20;1.10;;;;;;;24.40;66.83;100090.36;109946;1276;22315;-68
2023/06/14 15:57:05;;;;;;;2.00;0.80;;;;;;;24.46;66.69;100093.53;109873;1262;137634;-66
2023/06/14 15:59:32;;;;;;;3.70;0.60;;;;;;;24.51;66.52;100090.07;109949;1264;22998;-67
2023/06/14 16:02:00;;;;;;;3.10;1.20;;;;;;;24.54;66.59;100089.84;109806;1274;137329;-66
2023/06/14 16:04:28;;;;;;;3.50;1.30;;;;;;;24.56;66.32;100091.77;109767;1275;137430;-70
2023/06/14 16:06:55;;;;;;;3.20;1.20;;;;;;;24.57;65.96;100095.31;109874;1276;22803;-66
2023/06/14 16:09:23;;;;;;;1.30;0.80;;;;;;;24.55;65.96;100092.17;109777;1275;137536;-67
2023/06/14 16:11:50;;;;;;;4.60;0.80;;;;;;;24.55;66.10;100092.17;109870;1275;22377;-68
2023/06/14 16:14:17;;;;;;;3.20;0.70;;;;;;;24.50;65.48;100094.71;109758;1275;137737;-66
2023/06/14 16:16:46;;;;;;;2.30;1.00;;;;;;;24.42;65.43;100097.00;109771;1273;137579;-67
2023/06/14 16:19:14;;;;;;;3.90;0.80;;;;;;;24.38;65.44;100095.56;109966;1273;22368;-67
2023/06/14 16:21:42;;;;;;;2.00;1.00;;;;;;;24.41;65.62;100095.80;109783;1273;137500;-67
2023/06/14 16:24:09;;;;;;;3.20;1.30;;;;;;;24.42;66.45;100099.78;109771;1273;138476;-67
2023/06/14 16:26:37;;;;;;;6.70;1.30;;;;;;;24.43;66.55;100100.81;109930;1273;22320;-65
2023/06/14 16:29:04;;;;;;;2.80;1.20;;;;;;;24.43;66.41;100102.65;109801;1275;137778;-72
2023/06/14 16:31:31;;;;;;;3.20;1.10;;;;;;;24.43;66.98;100100.81;109870;1275;22622;-69
2023/06/14 16:33:58;;;;;;;4.70;1.20;;;;;;;24.42;67.47;100100.48;109794;1273;137047;-66
2023/06/14 16:36:26;;;;;;;3.50;1.60;;;;;;;24.39;67.84;100104.02;109754;1274;137894;-67
2023/06/14 16:38:54;;;;;;;3.40;1.30;;;;;;;24.28;68.70;100093.15;109826;1273;22217;-67
2023/06/14 16:41:21;;;;;;;4.20;1.90;;;;;;;24.27;68.83;100103.02;109817;1274;137228;-67
2023/06/14 16:43:48;;;;;;;4.20;1.40;;;;;;;24.22;68.60;100112.27;109952;1273;23062;-69
2023/06/14 16:46:27;;;;;;;2.10;1.40;;;;;;;24.15;69.26;100119.89;109805;1273;138711;-69
2023/06/14 16:48:54;;;;;;;2.40;1.80;;;;;;;24.07;69.86;100125.06;109881;1263;137865;-69
2023/06/14 16:51:22;;;;;;;8.10;2.10;;;;;;;24.02;70.45;100119.77;109960;1275;22841;-70
2023/06/14 16:53:51;;;;;;;5.30;1.90;;;;;;;23.97;70.79;100123.40;109852;1273;137941;-70
2023/06/14 16:56:20;;;;;;;3.00;2.10;;;;;;;23.91;71.38;100137.60;109784;1273;137442;-70
2023/06/14 16:58:47;;;;;;;5.30;1.50;;;;;;;23.77;71.88;100121.61;109914;1275;22348;-68
2023/06/14 17:01:15;;;;;;;9.10;2.20;;;;;;;23.72;72.47;100128.31;109808;1260;138128;-68
2023/06/14 17:03:43;;;;;;;2.10;1.60;;;;;;;23.63;72.98;100131.80;109859;1276;22403;-70
2023/06/14 17:06:11;;;;;;;4.90;2.00;;;;;;;23.55;73.21;100132.82;110093;1270;137267;-68
2023/06/14 17:08:38;;;;;;;4.40;2.10;;;;;;;23.49;73.48;100129.08;110064;1270;137441;-70
2023/06/14 17:11:07;;;;;;;3.10;1.40;;;;;;;23.45;73.83;100133.61;110309;1269;23107;-68
2023/06/14 17:13:34;;;;;;;2.10;1.50;;;;;;;23.40;74.21;100137.89;109998;1270;138265;-69
2023/06/14 17:16:02;;;;;;;3.00;1.60;;;;;;;23.35;74.24;100135.96;110106;1255;22885;-71
2023/06/14 17:18:30;;;;;;;2.40;1.20;;;;;;;23.29;74.26;100135.70;110130;1256;22340;-69
2023/06/14 17:20:57;;;;;;;1.90;1.40;;;;;;;23.23;74.46;100139.48;109852;1274;138620;-68
2023/06/14 17:23:24;;;;;;;5.70;1.70;;;;;;;23.19;74.69;100140.30;110030;1271;22639;-70
2023/06/14 17:25:52;;;;;;;5.80;1.70;;;;;;;23.17;75.09;100139.83;109965;1272;139518;-70
2023/06/14 17:28:20;;;;;;;1.60;1.50;;;;;;;23.14;75.22;100135.16;109873;1272;138014;-72
2023/06/14 17:30:47;;;;;;;5.00;1.70;;;;;;;23.12;75.31;100137.83;109920;1275;23224;-72
2023/06/14 17:33:16;;;;;;;3.70;2.40;;;;;;;23.10;75.46;100138.39;109929;1272;137701;-72
2023/06/14 17:35:47;;;;;;;5.40;1.60;;;;;;;23.07;75.40;100142.23;110092;1272;22154;-74
2023/06/14 17:38:15;;;;;;;8.00;1.90;;;;;;;23.07;75.38;100139.95;109821;1271;140229;-72
2023/06/14 17:40:43;;;;;;;4.10;2.60;;;;;;;23.06;75.48;100141.38;110001;1271;139385;-71
2023/06/14 17:43:18;;;;;;;6.30;2.10;;;;;;;23.06;75.49;100137.68;110151;1270;22171;-73
2023/06/14 17:45:45;;;;;;;6.20;1.60;;;;;;;23.06;75.40;100137.20;110212;1269;137978;-70
2023/06/14 17:48:14;;;;;;;2.30;2.10;;;;;;;23.05;75.32;100138.88;110119;1271;138208;-70
2023/06/14 17:50:41;;;;;;;4.20;1.40;;;;;;;23.04;75.40;100143.02;110210;1272;22425;-75
2023/06/14 17:53:08;;;;;;;3.90;1.80;;;;;;;22.99;75.31;100147.34;110108;1270;138292;-75
2023/06/14 17:55:36;;;;;;;3.70;1.80;;;;;;;22.95;75.49;100144.75;110188;1270;22199;-73
2023/06/14 17:58:05;;;;;;;4.10;1.70;;;;;;;22.92;75.65;100143.50;110169;1266;140006;-80
2023/06/14 18:00:32;;;;;;;6.00;1.90;;;;;;;22.90;75.44;100150.80;110145;1273;139272;-78
2023/06/14 18:03:01;;;;;;;4.50;2.20;;;;;;;22.87;75.30;100149.92;110032;1271;22361;-75
2023/06/14 18:05:29;;;;;;;2.30;2.10;;;;;;;22.80;75.70;100147.00;110030;1271;137205;-77
2023/06/14 18:07:57;;;;;;;5.30;2.10;;;;;;;22.73;76.23;100145.39;110077;1272;22338;-65
2023/06/14 18:10:25;;;;;;;2.50;2.20;;;;;;;22.68;76.76;100147.46;110010;1271;139003;-66
2023/06/14 18:12:53;;;;;;;2.40;1.80;;;;;;;22.59;77.19;100139.54;109911;1271;137551;-64
2023/06/14 18:15:20;;;;;;;3.00;2.10;;;;;;;22.59;77.43;100148.61;110036;1272;22181;-67
2023/06/14 18:17:50;;;;;;;4.30;3.50;;;;;;;22.54;77.85;100149.80;109957;1271;138980;-67
2023/06/14 18:20:18;;;;;;;2.50;2.30;;;;;;;22.50;78.03;100148.34;109874;1259;139968;-69
2023/06/14 18:22:47;;;;;;;3.80;2.10;;;;;;;22.49;78.05;100147.14;110033;1270;22346;-69
2023/06/14 18:25:15;;;;;;;4.70;2.40;;;;;;;22.47;78.34;100148.08;109946;1272;138723;-67
2023/06/14 18:27:45;;;;;;;3.70;2.00;;;;;;;22.47;78.18;100149.76;110046;1272;22328;-68
2023/06/14 18:30:13;;;;;;;2.50;1.50;;;;;;;22.45;78.69;100148.34;109934;1262;138435;-66
2023/06/14 18:32:46;;;;;;;4.60;2.70;;;;;;;22.41;79.18;100150.90;109946;1271;139532;-67
2023/06/14 18:35:15;;;;;;;7.40;2.20;;;;;;;22.34;79.81;100153.17;110066;1272;22473;-67
2023/06/14 18:37:43;;;;;;;7.20;2.20;;;;;;;22.25;80.50;100155.76;109956;1272;137437;-66
2023/06/14 18:40:12;;;;;;;6.40;2.40;;;;;;;22.17;81.06;100155.15;109928;1272;137783;-66
2023/06/14 18:42:40;;;;;;;3.10;2.30;;;;;;;22.10;81.60;100155.46;109996;1273;22302;-64
2023/06/14 18:45:08;;;;;;;6.40;2.10;;;;;;;22.03;82.03;100150.99;109947;1272;137648;-67
2023/06/14 18:47:35;;;;;;;5.10;2.80;;;;;;;21.96;82.40;100148.75;109979;1271;23434;-66
2023/06/14 18:50:03;;;;;;;4.10;2.40;;;;;;;21.92;82.63;100149.41;109870;1273;138741;-68
2023/06/14 18:52:30;;;;;;;4.90;2.20;;;;;;;21.89;82.87;100151.40;110005;1259;139481;-68
2023/06/14 18:54:58;;;;;;;4.60;2.00;;;;;;;21.87;82.98;100152.05;110041;1272;22340;-68
2023/06/14 18:57:26;;;;;;;3.30;2.30;;;;;;;21.85;83.15;100151.39;109942;1272;137999;-67
2023/06/14 18:59:53;;;;;;;4.00;1.80;;;;;;;21.82;83.38;100155.40;110024;1272;22830;-69
2023/06/14 19:02:20;;;;;;;4.40;2.40;;;;;;;21.80;83.44;100154.70;109912;1272;138934;-69
2023/06/14 19:04:48;;;;;;;7.20;2.70;;;;;;;21.80;83.30;100158.87;109929;1262;138207;-68
2023/06/14 19:07:15;;;;;;;4.50;3.10;;;;;;;21.80;83.03;100161.86;110214;1270;22402;-70
2023/06/14 19:09:43;;;;;;;9.30;2.30;;;;;;;21.80;83.17;100158.55;110125;1260;137872;-68
2023/06/14 19:12:10;;;;;;;8.50;2.40;;;;;;;21.81;82.93;100160.12;110096;1270;138203;-67
2023/06/14 19:14:39;;;;;;;2.50;2.00;;;;;;;21.80;83.08;100159.80;110256;1270;22144;-68
2023/06/14 19:17:09;;;;;;;5.20;2.80;;;;;;;21.78;83.30;100155.73;110030;1270;138350;-68
2023/06/14 19:19:36;;;;;;;3.40;2.20;;;;;;;21.73;83.38;100160.97;110076;1272;22198;-68
2023/06/14 19:22:04;;;;;;;3.00;1.60;;;;;;;21.69;83.30;100165.02;110061;1273;137824;-66
2023/06/14 19:24:31;;;;;;;5.00;2.60;;;;;;;21.67;83.48;100164.86;109961;1278;138141;-66
2023/06/14 19:26:59;;;;;;;12.20;2.40;;;;;;;21.67;83.52;100167.08;110180;1277;22221;-66
2023/06/14 19:29:26;;;;;;;4.40;2.30;;;;;;;21.67;83.85;100168.11;110180;1272;139529;-66
2023/06/14 19:31:54;;;;;;;3.20;2.20;;;;;;;21.65;83.94;100172.02;110172;1269;22223;-67
2023/06/14 19:34:21;;;;;;;3.30;2.70;;;;;;;21.63;84.10;100175.63;110200;1270;138263;-67
2023/06/14 19:36:49;;;;;;;5.90;3.00;;;;;;;21.62;84.13;100181.65;110114;1278;139481;-67
2023/06/14 19:39:16;;;;;;;6.80;2.50;;;;;;;21.57;84.37;100182.06;110171;1256;22383;-69
2023/06/14 19:41:44;;;;;;;2.50;1.80;;;;;;;21.55;84.63;100181.30;110024;1260;138563;-67
2023/06/14 19:44:11;;;;;;;2.00;1.70;;;;;;;21.56;84.45;100182.52;110046;1260;140101;-68
2023/06/14 19:46:38;;;;;;;4.90;2.60;;;;;;;21.55;84.45;100186.52;110106;1272;22224;-66
2023/06/14 19:49:06;;;;;;;2.70;2.50;;;;;;;21.53;84.62;100185.96;110047;1273;138195;-67
2023/06/14 19:51:34;;;;;;;4.80;1.80;;;;;;;21.51;84.43;100186.45;110153;1278;22217;-67
2023/06/14 19:54:02;;;;;;;3.10;1.50;;;;;;;21.46;84.42;100175.35;110016;1278;137879;-68
2023/06/14 19:56:29;;;;;;;4.30;2.10;;;;;;;21.49;84.14;100191.69;110104;1272;138640;-65
2023/06/14 19:58:57;;;;;;;3.10;2.10;;;;;;;21.48;84.26;100195.80;110295;1276;22478;-67
2023/06/14 20:01:25;;;;;;;4.70;1.90;;;;;;;21.48;84.29;100196.30;109930;1259;137962;-66
2023/06/14 20:03:52;;;;;;;4.50;2.00;;;;;;;21.48;84.43;100198.69;110036;1272;22327;-66
2023/06/14 20:06:21;;;;;;;3.10;1.90;;;;;;;21.46;84.71;100198.51;110069;1271;137606;-69
2023/06/14 20:08:48;;;;;;;5.00;2.40;;;;;;;21.42;84.81;100195.05;110059;1273;140358;-68
2023/06/14 20:11:16;;;;;;;5.30;2.80;;;;;;;21.44;84.54;100195.99;110175;1271;22204;-66
2023/06/14 20:13:44;;;;;;;9.50;3.50;;;;;;;21.44;84.80;100197.27;110054;1272;139727;-68
2023/06/14 20:16:11;;;;;;;9.30;2.40;;;;;;;21.40;84.96;100197.25;110039;1260;138014;-66
2023/06/14 20:18:38;;;;;;;4.10;2.20;;;;;;;21.39;85.32;100192.04;110113;1278;22995;-66
2023/06/14 20:21:06;;;;;;;3.60;2.40;;;;;;;21.38;86.07;100193.61;110101;1272;138359;-66
2023/06/14 20:23:33;;;;;;;3.70;2.60;;;;;;;21.34;86.64;100196.41;110199;1273;22084;-65
2023/06/14 20:26:01;;;;;;;8.00;2.80;;;;;;;21.31;87.00;100195.95;110009;1277;138313;-66
2023/06/14 20:28:30;;;;;;;2.80;2.20;;;;;;;21.26;86.83;100193.92;110110;1266;138227;-66
2023/06/14 20:30:58;;;;;;;4.50;2.80;;;;;;;21.21;86.85;100192.98;110030;1275;22319;-66
2023/06/14 20:33:26;;;;;;;3.90;2.20;;;;;;;21.16;86.73;100191.72;109963;1278;138543;-65
2023/06/14 20:35:53;;;;;;;4.60;2.40;;;;;;;21.14;86.58;100185.41;110221;1273;22216;-66
2023/06/14 20:38:21;;;;;;;4.70;2.10;;;;;;;21.13;86.67;100186.48;110202;1259;137796;-65
2023/06/14 20:40:52;;;;;;;11.10;2.80;;;;;;;21.10;86.92;100181.91;110289;1271;137762;-67
2023/06/14 20:43:20;;;;;;;3.30;2.10;;;;;;;21.04;87.31;100183.62;110144;1273;22384;-66
2023/06/14 20:45:49;;;;;;;4.20;2.20;;;;;;;20.98;87.77;100180.00;110170;1271;138434;-66
2023/06/14 20:48:16;;;;;;;2.90;2.00;;;;;;;20.96;87.95;100180.05;110148;1272;138623;-64
2023/06/14 20:50:44;;;;;;;3.20;2.30;;;;;;;20.92;88.31;100178.34;110235;1275;22596;-65
2023/06/14 20:53:11;;;;;;;3.50;2.40;;;;;;;20.89;88.53;100179.67;110208;1276;139070;-66
2023/06/14 20:55:39;;;;;;;5.40;2.50;;;;;;;20.85;88.85;100178.08;110386;1276;22889;-65
2023/06/14 20:58:08;;;;;;;5.20;2.50;;;;;;;20.79;89.61;100175.60;110133;1259;138756;-68
2023/06/14 21:00:35;;;;;;;4.10;2.80;;;;;;;20.74;90.01;100174.36;110053;1272;139431;-66
2023/06/14 21:03:03;;;;;;;5.30;2.50;;;;;;;20.66;90.57;100172.36;110322;1270;22241;-65
2023/06/14 21:05:31;;;;;;;8.20;2.90;;;;;;;20.60;91.04;100171.70;110034;1272;140348;-67
2023/06/14 21:08:00;;;;;;;4.70;2.40;;;;;;;20.53;91.63;100172.11;110136;1275;22887;-65
2023/06/14 21:10:28;;;;;;;5.40;2.50;;;;;;;20.49;92.14;100169.53;110306;1266;22729;-66
2023/06/14 21:12:55;;;;;;;12.80;3.30;;;;;;;20.44;92.50;100172.37;109972;1275;140236;-65
2023/06/14 21:15:25;;;;;;;4.80;2.70;;;;;;;20.39;93.11;100168.70;110353;1276;22192;-65
2023/06/14 21:17:53;;;;;;;4.10;2.70;;;;;;;20.36;93.52;100165.77;110253;1269;138791;-64
2023/06/14 21:20:22;;;;;;;6.10;3.20;;;;;;;20.34;93.87;100164.22;110090;1256;140751;-65
2023/06/14 21:22:50;;;;;;;5.40;3.20;;;;;;;20.31;93.91;100164.89;110415;1269;22752;-67
2023/06/14 21:25:17;;;;;;;5.40;3.60;;;;;;;20.31;93.96;100163.64;110139;1278;139152;-67
2023/06/14 21:27:45;;;;;;;8.40;5.10;;;;;;;20.33;93.95;100163.66;110302;1276;22230;-67
2023/06/14 21:30:15;;;;;;;9.80;6.10;;;;;;;20.34;93.96;100166.88;110046;1272;139414;-67
2023/06/14 21:32:44;;;;;;;6.10;5.60;;;;;;;20.33;94.12;100169.95;110109;1278;138176;-70
2023/06/14 21:35:13;;;;;;;5.30;4.60;;;;;;;20.28;94.35;100170.05;110107;1278;22213;-68
2023/06/14 21:37:40;;;;;;;3.80;3.50;;;;;;;20.26;94.50;100171.66;110106;1278;137834;-68
2023/06/14 21:40:08;;;;;;;4.50;2.90;;;;;;;20.28;94.71;100172.55;109975;1278;138829;-66
2023/06/14 21:42:35;;;;;;;7.60;3.10;;;;;;;20.25;95.25;100177.40;110214;1276;22214;-66
2023/06/14 21:45:08;;;;;;;6.30;2.70;;;;;;;20.18;95.67;100176.63;110061;1272;139291;-66
2023/06/14 21:47:36;;;;;;;3.10;2.90;;;;;;;20.11;96.30;100174.44;110203;1272;23199;-65
2023/06/14 21:50:05;;;;;;;4.20;2.00;;;;;;;20.05;96.73;100171.63;110065;1278;138165;-65
2023/06/14 21:52:32;;;;;;;8.40;3.30;;;;;;;19.99;97.40;100173.30;110157;1273;139986;-65
2023/06/14 21:55:00;;;;;;;6.40;3.30;;;;;;;19.93;97.70;100172.74;110239;1278;22220;-66
2023/06/14 21:57:27;;;;;;;4.80;3.40;;;;;;;19.88;98.07;100172.42;110168;1270;139106;-66
2023/06/14 21:59:54;;;;;;;6.50;3.20;;;;;;;19.80;97.92;100163.19;110032;1277;22349;-66
2023/06/14 22:02:22;;;;;;;5.90;2.50;;;;;;;19.88;97.84;100171.30;110199;1277;139289;-65
2023/06/14 22:04:49;;;;;;;6.60;3.10;;;;;;;19.89;97.78;100171.30;110172;1276;138296;-67
2023/06/14 22:07:18;;;;;;;9.40;3.50;;;;;;;19.92;97.67;100175.17;110219;1269;22579;-64
2023/06/14 22:09:46;;;;;;;8.10;3.10;;;;;;;19.94;97.53;100174.39;110104;1278;140909;-64
2023/06/14 22:12:15;;;;;;;3.20;2.90;;;;;;;19.88;97.52;100155.05;110103;1278;139282;-64
2023/06/14 22:14:45;;;;;;;4.70;2.90;;;;;;;19.89;97.50;100156.36;110159;1278;22136;-65
2023/06/14 22:17:16;;;;;;;4.80;3.10;;;;;;;19.94;97.69;100167.30;110097;1272;138419;-65
2023/06/14 22:19:49;;;;;;;5.10;3.30;;;;;;;19.89;97.90;100171.69;110157;1278;22316;-65
2023/06/14 22:22:24;;;;;;;6.00;3.70;;;;;;;19.87;98.01;100173.06;110145;1270;139888;-67
2023/06/14 22:24:53;;;;;;;5.70;3.90;;;;;;;19.89;98.06;100175.56;110340;1270;139339;-64
2023/06/14 22:27:22;;;;;;;2.90;2.60;;;;;;;19.89;98.67;100173.84;110298;1275;22229;-65
2023/06/14 22:29:56;;;;;;;4.60;3.60;;;;;;;19.88;98.75;100179.99;110134;1278;140810;-64
2023/06/14 22:32:26;;;;;;;4.80;3.30;;;;;;;19.88;98.72;100179.83;110143;1278;141104;-65
2023/06/14 22:34:57;;;;;;;5.80;3.50;;;;;;;19.87;98.86;100184.26;110208;1270;22191;-65
2023/06/14 22:37:35;;;;;;;4.60;2.80;;;;;;;19.85;99.11;100185.54;110220;1270;139532;-64
2023/06/14 22:40:09;;;;;;;5.10;2.70;;;;;;;19.81;99.66;100184.20;110182;1273;139160;-65
2023/06/14 22:42:40;;;;;;;4.10;3.00;;;;;;;19.73;100.00;100186.96;110295;1276;22223;-64
2023/06/14 22:45:10;;;;;;;6.70;4.60;;;;;;;19.64;100.00;100183.42;110232;1276;139353;-64
2023/06/14 22:47:39;;;;;;;8.00;3.70;;;;;;;19.57;100.00;100185.52;110287;1276;22272;-64
2023/06/14 22:50:07;;;;;;;4.40;3.80;;;;;;;19.52;100.00;100182.63;110154;1260;138853;-62
2023/06/14 22:52:39;;;;;;;6.30;3.00;;;;;;;19.46;100.00;100180.84;110128;1270;139058;-66
2023/06/14 22:55:08;;;;;;;6.10;3.20;;;;;;;19.45;100.00;100183.14;110398;1270;22194;-64
2023/06/14 22:57:36;;;;;;;7.20;3.70;;;;;;;19.44;100.00;100182.09;110248;1259;139135;-64
2023/06/14 23:00:10;;;;;;;6.10;3.60;;;;;;;19.38;100.00;100184.41;110103;1275;139039;-65
2023/06/14 23:02:39;;;;;;;6.00;4.20;;;;;;;19.33;100.00;100183.56;110193;1276;22952;-63
2023/06/14 23:05:11;;;;;;;4.70;3.10;;;;;;;19.23;100.00;100183.08;110278;1274;138822;-65
2023/06/14 23:07:39;;;;;;;7.70;3.50;;;;;;;19.17;100.00;100181.79;110353;1276;22799;-64
2023/06/14 23:10:08;;;;;;;4.90;3.90;;;;;;;19.11;100.00;100181.01;110111;1275;139013;-65
2023/06/14 23:12:35;;;;;;;4.80;3.60;;;;;;;19.04;100.00;100177.99;110100;1273;139324;-64
2023/06/14 23:15:03;;;;;;;6.00;3.50;;;;;;;19.00;100.00;100182.70;110200;1272;22354;-65
2023/06/14 23:17:31;;;;;;;6.70;4.20;;;;;;;18.93;100.00;100180.20;110199;1278;139442;-64
2023/06/14 23:20:06;;;;;;;6.70;3.80;;;;;;;18.86;100.00;100180.65;110185;1277;22413;-64
2023/06/14 23:22:35;;;;;;;6.40;3.70;;;;;;;18.77;100.00;100167.28;110316;1278;22856;-65
2023/06/14 23:25:04;;;;;;;7.80;3.70;;;;;;;18.72;100.00;100169.34;110088;1278;140110;-65
2023/06/14 23:27:34;;;;;;;8.80;4.50;;;;;;;18.71;100.00;100180.66;110206;1256;22304;-65
2023/06/14 23:30:04;;;;;;;8.60;4.20;;;;;;;18.62;100.00;100184.45;110155;1273;138648;-64
2023/06/14 23:32:34;;;;;;;4.40;3.60;;;;;;;18.53;100.00;100189.59;110244;1257;140145;-63
2023/06/14 23:35:04;;;;;;;4.30;3.80;;;;;;;18.47;100.00;100188.63;110381;1270;22170;-64
2023/06/14 23:37:32;;;;;;;4.70;3.90;;;;;;;18.32;100.00;100178.73;110230;1276;139033;-64
2023/06/14 23:40:00;;;;;;;5.10;4.10;;;;;;;18.33;100.00;100191.36;110271;1276;22206;-64
2023/06/14 23:42:31;;;;;;;4.50;4.10;;;;;;;18.30;100.00;100196.48;110332;1278;22232;-64
2023/06/14 23:45:00;;;;;;;3.90;3.60;;;;;;;18.27;100.00;100198.48;109956;1278;139624;-64
2023/06/14 23:47:33;;;;;;;6.20;3.60;;;;;;;18.26;100.00;100197.42;110167;1278;22137;-65
2023/06/14 23:50:01;;;;;;;5.70;3.60;;;;;;;18.26;100.00;100199.28;110295;1276;138678;-65
2023/06/14 23:52:31;;;;;;;5.30;3.50;;;;;;;18.25;100.00;100197.65;110191;1276;139803;-66
2023/06/14 23:55:01;;;;;;;5.60;3.90;;;;;;;18.26;100.00;100201.33;110351;1272;22931;-64
2023/06/14 23:57:29;;;;;;;3.60;3.30;;;;;;;18.32;100.00;100201.52;110275;1270;140429;-66
2023/06/14 23:59:57;;;;;;;5.90;4.40;;;;;;;18.25;100.00;100200.13;110335;1276;22843;-64
